Terminal Aerodrome Forecast
Issued by NWS

Home | Current Version | Previous Version | Text Only | Print | Product List | Glossary On
Versions: 1 2 3 4 5 6 7 8 9 10 11 12 13 14 15 16
000
FTUS41 KCAR 252322
TAFBHB
TAF
KBHB 252322Z 2600/2624 21005KT P6SM SCT080 BKN250
     FM260700 VRB02KT 3SM BR SCT250
     FM261100 VRB02KT P6SM FEW080 SCT250=

USA.gov is the U.S. government's official web portal to all federal, state and local government web resources and services.